Time;durP1;ratioP1;P1;durP2;ratioP2;P2;SDS_P1;SDS_P2;PMS_P1;PMS_P2;Temp;Humidity;BMP_temperature;BMP_pressure;BME280_temperature;BME280_humidity;BME280_pressure;Samples;Min_cycle;Max_cycle;Signal;HPM_P1;HPM_P2
2021/05/16 00:01:55;;;;;;;10.37;4.00;;;;;;;10.52;83.62;100111.41;5134843;27;20033;-40
2021/05/16 00:04:21;;;;;;;11.07;3.40;;;;;;;10.49;82.57;100111.91;5134566;27;20335;-40
2021/05/16 00:06:46;;;;;;;14.50;3.90;;;;;;;10.53;82.09;100110.34;5134275;27;20488;-38
2021/05/16 00:09:11;;;;;;;14.97;4.00;;;;;;;10.48;82.21;100104.84;5134547;27;20034;-38
2021/05/16 00:11:36;;;;;;;14.93;3.60;;;;;;;10.48;81.25;100110.25;5134311;27;20015;-39
2021/05/16 00:14:02;;;;;;;13.70;4.10;;;;;;;10.43;82.06;100112.88;5134776;27;20024;-40
2021/05/16 00:16:28;;;;;;;13.73;3.90;;;;;;;10.45;82.01;100102.66;5134456;27;20027;-40
2021/05/16 00:18:53;;;;;;;16.10;4.00;;;;;;;10.45;82.38;100105.38;5134572;27;20439;-40
2021/05/16 00:21:19;;;;;;;16.47;4.33;;;;;;;10.47;81.79;100113.22;5134149;27;20023;-38
2021/05/16 00:23:44;;;;;;;12.77;3.57;;;;;;;10.47;81.86;100116.75;5134074;27;20065;-39
2021/05/16 00:26:09;;;;;;;13.57;4.03;;;;;;;10.44;82.00;100113.72;5134698;27;20029;-40
2021/05/16 00:28:35;;;;;;;18.87;3.83;;;;;;;10.41;81.66;100106.13;5134008;27;20038;-40
2021/05/16 00:31:00;;;;;;;15.20;4.10;;;;;;;10.46;81.60;100120.50;5135239;27;20074;-40
2021/05/16 00:33:26;;;;;;;13.73;3.95;;;;;;;10.39;81.82;100108.22;5138134;27;20038;-40
2021/05/16 00:35:51;;;;;;;12.90;4.10;;;;;;;10.39;82.05;100111.75;5138213;27;20023;-40
2021/05/16 00:38:16;;;;;;;15.63;3.60;;;;;;;10.40;81.77;100118.81;5138308;27;20035;-40
2021/05/16 00:40:42;;;;;;;17.37;4.00;;;;;;;10.39;82.53;100119.84;5138384;27;20071;-40
2021/05/16 00:43:07;;;;;;;15.27;3.87;;;;;;;10.38;82.91;100115.53;5137994;27;20027;-40
2021/05/16 00:45:34;;;;;;;16.80;3.63;;;;;;;10.39;82.40;100129.84;5138194;27;20041;-40
2021/05/16 00:48:03;;;;;;;15.88;4.15;;;;;;;10.32;82.48;100124.63;5137905;27;20027;-41
2021/05/16 00:50:35;;;;;;;13.82;3.40;;;;;;;10.39;82.70;100124.44;5137616;27;20031;-40
2021/05/16 00:53:00;;;;;;;11.18;3.05;;;;;;;10.32;82.84;100128.13;5137572;27;20027;-40
2021/05/16 00:55:26;;;;;;;16.40;3.37;;;;;;;10.28;82.55;100124.28;5137827;27;20436;-40
2021/05/16 00:57:51;;;;;;;12.80;3.53;;;;;;;10.36;82.05;100123.06;5137432;27;20578;-40
2021/05/16 01:00:22;;;;;;;16.98;3.55;;;;;;;10.25;82.65;100115.88;5138116;27;20336;-40
2021/05/16 01:02:47;;;;;;;14.43;3.58;;;;;;;10.29;82.36;100117.00;5137323;27;20034;-40
2021/05/16 01:05:15;;;;;;;19.33;3.60;;;;;;;10.24;83.19;100120.44;5138083;27;20119;-40
2021/05/16 01:07:41;;;;;;;18.15;4.05;;;;;;;10.23;82.10;100118.78;5137797;27;20031;-40
2021/05/16 01:10:09;;;;;;;15.52;3.95;;;;;;;10.26;81.72;100120.22;5137822;27;20037;-40
2021/05/16 01:12:55;;;;;;;19.73;4.57;;;;;;;10.26;81.54;100112.09;5137069;27;20041;-40
2021/05/16 01:15:23;;;;;;;12.77;3.40;;;;;;;10.25;81.95;100110.47;5137951;27;20031;-40
2021/05/16 01:17:48;;;;;;;20.02;3.97;;;;;;;10.27;80.96;100113.72;5138093;27;20058;-40
2021/05/16 01:20:32;;;;;;;19.85;3.95;;;;;;;10.26;81.61;100118.31;5137345;27;20389;-40
2021/05/16 01:23:04;;;;;;;14.82;3.95;;;;;;;10.15;81.97;100113.81;5137208;27;20102;-40
2021/05/16 01:25:32;;;;;;;15.10;3.85;;;;;;;10.23;82.43;100116.06;5137512;27;20019;-40
2021/05/16 01:27:58;;;;;;;19.27;4.13;;;;;;;10.23;81.36;100118.78;5137675;27;20027;-40
2021/05/16 01:30:24;;;;;;;23.65;4.72;;;;;;;10.21;81.12;100118.22;5137506;27;20058;-40
2021/05/16 01:32:50;;;;;;;19.00;4.43;;;;;;;10.21;81.24;100117.41;5137366;27;20062;-40
2021/05/16 01:35:15;;;;;;;16.40;4.30;;;;;;;10.20;81.41;100103.06;5136673;27;20482;-40
2021/05/16 01:37:41;;;;;;;20.70;4.67;;;;;;;10.22;81.15;100110.91;5137230;27;20027;-40
2021/05/16 01:40:08;;;;;;;16.65;3.97;;;;;;;10.22;81.34;100106.34;5137062;27;20373;-40
2021/05/16 01:42:33;;;;;;;;;;;;;;;10.29;81.04;100114.28;5136504;27;20031;-40
2021/05/16 01:45:03;;;;;;;16.30;4.40;;;;;;;10.25;81.38;100113.19;5137293;27;19977;-40
2021/05/16 01:47:30;;;;;;;14.32;4.15;;;;;;;10.19;81.75;100114.09;5136690;27;20020;-40
2021/05/16 01:50:04;;;;;;;15.38;4.00;;;;;;;10.19;82.68;100111.41;5137199;27;20031;-40
2021/05/16 01:52:31;;;;;;;16.08;4.25;;;;;;;10.20;81.58;100107.63;5137458;27;20340;-40
2021/05/16 01:54:56;;;;;;;16.30;3.83;;;;;;;10.14;81.87;100108.63;5137141;27;20034;-40
2021/05/16 01:57:22;;;;;;;21.70;4.53;;;;;;;10.16;81.69;100114.63;5136383;27;20483;-40
2021/05/16 01:59:48;;;;;;;21.40;4.30;;;;;;;10.15;81.89;100113.81;5136225;27;20105;-40
2021/05/16 02:02:14;;;;;;;19.60;4.82;;;;;;;10.17;81.61;100116.25;5137282;27;20076;-40
2021/05/16 02:04:39;;;;;;;17.50;4.60;;;;;;;10.12;82.36;100108.06;5136501;27;20424;-40
2021/05/16 02:07:05;;;;;;;16.03;4.23;;;;;;;10.15;81.28;100113.81;5136410;27;20058;-40
2021/05/16 02:09:31;;;;;;;16.20;4.10;;;;;;;10.13;81.69;100112.41;5136103;27;20122;-40
2021/05/16 02:11:56;;;;;;;15.88;4.38;;;;;;;10.17;81.25;100110.84;5136027;27;20031;-40
2021/05/16 02:14:22;;;;;;;28.20;5.47;;;;;;;10.14;81.33;100119.44;5136511;27;20031;-40
2021/05/16 02:16:48;;;;;;;19.63;4.57;;;;;;;10.15;80.33;100110.25;5136694;27;20027;-40
2021/05/16 02:19:13;;;;;;;19.13;4.88;;;;;;;10.15;80.04;100104.84;5136678;27;20492;-40
2021/05/16 02:21:40;;;;;;;17.93;4.57;;;;;;;10.10;81.41;100108.28;5136124;27;20023;-40
2021/05/16 02:24:06;;;;;;;22.42;4.75;;;;;;;10.13;80.77;100107.00;5136823;27;20058;-40
2021/05/16 02:26:31;;;;;;;14.32;4.63;;;;;;;10.14;80.36;100119.44;5136263;27;20065;-40
2021/05/16 02:28:57;;;;;;;17.03;4.40;;;;;;;10.17;79.97;100114.38;5135996;27;20510;-40
2021/05/16 02:31:22;;;;;;;17.70;5.17;;;;;;;10.11;79.80;100111.84;5136461;27;20130;-40
2021/05/16 02:33:48;;;;;;;19.10;5.37;;;;;;;10.14;79.45;100109.44;5136131;27;20347;-40
2021/05/16 02:36:14;;;;;;;18.42;5.25;;;;;;;10.09;79.78;100108.53;5135761;27;20023;-40
2021/05/16 02:38:39;;;;;;;19.63;5.87;;;;;;;10.08;80.28;100099.63;5136530;27;20023;-40
2021/05/16 02:41:04;;;;;;;20.37;5.27;;;;;;;10.09;79.71;100111.25;5135773;27;20027;-40
2021/05/16 02:43:30;;;;;;;19.70;5.57;;;;;;;10.03;79.31;100108.47;5136246;27;20102;-40
2021/05/16 02:45:55;;;;;;;23.53;5.53;;;;;;;10.03;79.47;100108.47;5136016;27;20038;-40
2021/05/16 02:48:20;;;;;;;22.13;5.03;;;;;;;10.04;79.67;100104.69;5135799;27;20151;-40
2021/05/16 02:50:46;;;;;;;14.47;4.70;;;;;;;10.03;80.94;100100.34;5136063;27;20027;-40
2021/05/16 02:53:13;;;;;;;21.90;5.00;;;;;;;10.06;80.19;100104.47;5135318;27;20094;-40
2021/05/16 02:55:39;;;;;;;21.42;5.45;;;;;;;10.02;80.59;100106.00;5136213;27;20109;-40
2021/05/16 02:58:04;;;;;;;23.17;5.47;;;;;;;10.06;80.15;100107.97;5135442;27;20111;-40
2021/05/16 03:00:29;;;;;;;31.27;5.67;;;;;;;10.01;80.86;100107.09;5134388;27;20122;-40
2021/05/16 03:02:55;;;;;;;17.97;4.30;;;;;;;10.05;80.38;100108.22;5135017;27;20064;-40
2021/05/16 03:05:20;;;;;;;24.95;5.55;;;;;;;10.04;79.99;100102.00;5136027;27;20023;-41
2021/05/16 03:07:46;;;;;;;17.40;4.93;;;;;;;9.99;80.37;100101.09;5135421;27;20073;-40
2021/05/16 03:10:11;;;;;;;21.17;4.87;;;;;;;10.01;80.54;100109.78;5135502;27;20249;-40
2021/05/16 03:12:37;;;;;;;14.27;4.60;;;;;;;10.06;80.45;100109.88;5135048;27;20463;-40
2021/05/16 03:15:02;;;;;;;19.10;4.87;;;;;;;10.06;80.58;100110.69;5135165;27;20019;-40
2021/05/16 03:17:28;;;;;;;22.83;4.68;;;;;;;10.04;80.67;100111.97;5134754;27;20056;-40
2021/05/16 03:19:53;;;;;;;21.33;5.60;;;;;;;9.99;80.55;100114.59;5134875;27;20035;-40
2021/05/16 03:22:18;;;;;;;23.37;4.73;;;;;;;10.03;80.56;100107.66;5134888;27;20019;-40
2021/05/16 03:24:44;;;;;;;20.37;4.37;;;;;;;10.00;80.82;100114.38;5135573;27;20019;-40
2021/05/16 03:27:09;;;;;;;23.43;5.40;;;;;;;9.98;80.35;100121.88;5135328;27;20050;-40
2021/05/16 03:29:35;;;;;;;23.00;5.20;;;;;;;9.97;80.59;100120.25;5134494;27;20500;-40
2021/05/16 03:32:01;;;;;;;25.73;6.22;;;;;;;10.00;80.95;100118.94;5135046;27;20023;-40
2021/05/16 03:34:26;;;;;;;20.77;5.43;;;;;;;10.00;80.77;100119.78;5135176;27;20059;-40
2021/05/16 03:36:52;;;;;;;22.87;6.07;;;;;;;9.99;81.05;100122.69;5135148;27;20028;-40
2021/05/16 03:39:18;;;;;;;17.42;5.43;;;;;;;9.98;80.99;100121.88;5134746;27;20437;-40
2021/05/16 03:41:44;;;;;;;;;;;;;;;10.03;81.10;100123.84;5135251;27;20469;-40
2021/05/16 03:44:09;;;;;;;22.17;6.60;;;;;;;9.96;81.78;100117.81;5134864;27;19960;-40
2021/05/16 03:46:35;;;;;;;22.67;6.43;;;;;;;9.96;81.84;100118.63;5135249;27;20023;-40
2021/05/16 03:49:01;;;;;;;22.33;6.93;;;;;;;9.91;81.59;100115.03;5135310;27;20109;-40
2021/05/16 03:51:26;;;;;;;20.80;7.38;;;;;;;9.93;82.02;100127.19;5134132;27;20031;-40
2021/05/16 03:53:52;;;;;;;22.83;6.82;;;;;;;9.95;81.21;100119.66;5134896;27;20035;-40
2021/05/16 03:56:17;;;;;;;23.00;7.05;;;;;;;9.93;80.57;100119.09;5134703;27;20085;-40
2021/05/16 03:58:43;;;;;;;21.00;6.70;;;;;;;9.98;80.66;100121.06;5134257;27;20027;-40
2021/05/16 04:01:08;;;;;;;22.77;7.07;;;;;;;9.96;80.85;100132.13;5134373;27;20383;-40
2021/05/16 04:03:33;;;;;;;24.77;7.67;;;;;;;10.00;80.23;100135.97;5134368;27;20034;-40
2021/05/16 04:05:59;;;;;;;23.17;6.30;;;;;;;10.01;79.95;100126.81;5134299;27;20023;-40
2021/05/16 04:08:24;;;;;;;22.20;7.23;;;;;;;9.99;80.47;100133.50;5133995;27;20426;-40
2021/05/16 04:10:49;;;;;;;23.57;6.83;;;;;;;9.97;81.10;100132.94;5134256;27;20034;-40
2021/05/16 04:13:15;;;;;;;20.40;6.40;;;;;;;9.89;81.02;100127.94;5134134;27;20039;-40
2021/05/16 04:15:40;;;;;;;22.33;6.50;;;;;;;9.88;81.02;100143.31;5134191;27;20046;-40
2021/05/16 04:18:05;;;;;;;22.77;6.53;;;;;;;9.94;80.79;100133.41;5134132;27;20378;-40
2021/05/16 04:20:31;;;;;;;22.93;5.70;;;;;;;9.92;80.85;100138.25;5134012;27;20390;-40
2021/05/16 04:22:59;;;;;;;18.63;5.28;;;;;;;9.91;80.44;100142.03;5134088;27;20034;-40
2021/05/16 04:25:25;;;;;;;20.73;5.45;;;;;;;9.87;80.26;100138.16;5134145;27;20035;-40
2021/05/16 04:27:51;;;;;;;21.88;5.22;;;;;;;9.90;79.65;100140.38;5134026;27;20026;-40
2021/05/16 04:30:17;;;;;;;19.75;5.13;;;;;;;9.90;80.03;100143.88;5134815;27;20107;-40
2021/05/16 04:32:42;;;;;;;20.52;4.80;;;;;;;9.92;79.90;100132.84;5132863;28;20046;-40
2021/05/16 04:35:08;;;;;;;21.33;5.83;;;;;;;9.91;80.79;100131.22;5134369;27;20023;-40
2021/05/16 04:37:33;;;;;;;24.27;5.85;;;;;;;9.89;80.28;100133.34;5133723;27;20110;-40
2021/05/16 04:39:58;;;;;;;18.70;5.17;;;;;;;9.90;79.35;100135.78;5134492;27;20023;-40
2021/05/16 04:42:24;;;;;;;22.43;6.13;;;;;;;9.90;79.19;100134.97;5134185;27;20027;-40
2021/05/16 04:44:49;;;;;;;26.20;6.33;;;;;;;9.93;80.00;100135.31;5134005;27;20507;-40
2021/05/16 04:47:15;;;;;;;18.57;5.30;;;;;;;9.89;79.54;100133.34;5133850;27;20371;-40
2021/05/16 04:49:40;;;;;;;23.27;5.75;;;;;;;9.90;79.89;100135.78;5134745;27;20026;-40
2021/05/16 04:52:05;;;;;;;24.17;5.50;;;;;;;9.95;80.10;100143.16;5133852;27;20364;-40
2021/05/16 04:54:31;;;;;;;18.97;4.77;;;;;;;9.97;80.08;100141.84;5134075;27;20031;-40
2021/05/16 04:56:56;;;;;;;21.70;5.37;;;;;;;9.98;78.46;100142.69;5133859;27;20019;-40
2021/05/16 04:59:21;;;;;;;22.47;5.40;;;;;;;9.92;79.24;100149.88;5133983;27;20490;-40
2021/05/16 05:01:47;;;;;;;22.83;5.50;;;;;;;9.90;80.62;100156.56;5134109;27;20114;-40
2021/05/16 05:04:13;;;;;;;20.17;4.88;;;;;;;9.87;79.21;100147.09;5134249;27;20023;-40
2021/05/16 05:06:39;;;;;;;22.67;5.78;;;;;;;9.90;79.82;100161.97;5133361;27;20134;-40
2021/05/16 05:09:05;;;;;;;24.30;5.67;;;;;;;9.89;79.32;100161.16;5134261;27;20065;-40
2021/05/16 05:11:34;;;;;;;;;;;;;;;9.97;79.11;100157.25;5134065;27;20285;-40
2021/05/16 05:14:00;;;;;;;19.75;5.18;;;;;;;9.87;79.43;100157.88;5133632;28;19912;-40
2021/05/16 05:16:25;;;;;;;21.00;5.78;;;;;;;9.92;79.37;100159.88;5134402;27;20431;-40
2021/05/16 05:18:51;;;;;;;22.75;6.03;;;;;;;9.93;79.40;100158.78;5137524;27;20019;-40
2021/05/16 05:21:16;;;;;;;19.37;5.70;;;;;;;9.99;79.39;100158.63;5137643;27;20027;-40
2021/05/16 05:23:41;;;;;;;21.33;5.97;;;;;;;9.98;79.48;100151.59;5137239;27;20121;-40
2021/05/16 05:26:07;;;;;;;19.30;5.67;;;;;;;10.08;79.40;100159.06;5136944;27;20027;-40
2021/05/16 05:28:32;;;;;;;25.63;6.17;;;;;;;10.07;79.76;100150.13;5136912;27;20023;-40
2021/05/16 05:30:57;;;;;;;24.93;6.93;;;;;;;10.07;79.86;100149.31;5137789;27;20054;-40
2021/05/16 05:33:23;;;;;;;23.67;5.83;;;;;;;10.08;79.83;100159.06;5137102;27;20042;-40
2021/05/16 05:35:49;;;;;;;17.73;5.93;;;;;;;10.08;78.33;100161.75;5137602;27;20081;-40
2021/05/16 05:38:14;;;;;;;22.13;5.97;;;;;;;10.06;78.02;100162.00;5137174;27;20023;-40
2021/05/16 05:40:40;;;;;;;16.13;5.47;;;;;;;10.08;78.38;100164.47;5137664;27;20046;-39
2021/05/16 05:43:05;;;;;;;20.27;5.65;;;;;;;10.04;78.74;100156.00;5136556;27;20480;-38
2021/05/16 05:45:30;;;;;;;24.33;6.03;;;;;;;10.12;78.42;100162.09;5137175;27;20042;-38
2021/05/16 05:47:55;;;;;;;22.97;5.53;;;;;;;10.15;78.19;100164.28;5137049;27;20067;-38
2021/05/16 05:50:21;;;;;;;17.27;5.50;;;;;;;10.17;77.73;100164.88;5136505;27;20019;-38
2021/05/16 05:52:46;;;;;;;23.67;5.60;;;;;;;10.17;78.33;100163.00;5136678;27;20082;-38
2021/05/16 05:55:12;;;;;;;20.33;5.27;;;;;;;10.20;78.63;100167.06;5136703;27;20046;-38
2021/05/16 05:57:38;;;;;;;21.20;5.70;;;;;;;10.21;78.56;100166.84;5136317;27;20443;-38
2021/05/16 06:00:05;;;;;;;22.37;5.20;;;;;;;10.18;78.58;100171.91;5136800;27;20023;-38
2021/05/16 06:02:30;;;;;;;22.80;5.68;;;;;;;10.21;78.40;100180.34;5136386;27;20172;-38
2021/05/16 06:04:55;;;;;;;21.80;5.97;;;;;;;10.21;78.27;100179.53;5136532;27;20118;-38
2021/05/16 06:07:21;;;;;;;20.87;6.10;;;;;;;10.21;78.52;100176.84;5134843;27;20043;-38
2021/05/16 06:09:46;;;;;;;25.33;6.40;;;;;;;10.25;78.53;100175.31;5136960;27;20374;-38
2021/05/16 06:12:12;;;;;;;22.50;5.67;;;;;;;10.27;78.16;100181.28;5136010;27;20030;-38
2021/05/16 06:14:37;;;;;;;24.60;5.65;;;;;;;10.27;78.29;100173.19;5136845;27;20450;-38
2021/05/16 06:17:03;;;;;;;19.85;5.15;;;;;;;10.28;79.34;100181.03;5135958;27;20422;-38
2021/05/16 06:19:29;;;;;;;;;;;;;;;10.41;78.46;100177.19;5136889;27;20110;-39
2021/05/16 06:21:54;;;;;;;16.85;5.07;;;;;;;10.40;78.37;100180.16;5136099;27;20046;-39
2021/05/16 06:24:20;;;;;;;21.03;6.17;;;;;;;10.47;78.98;100178.09;5136367;27;20027;-39
2021/05/16 06:26:46;;;;;;;19.75;5.35;;;;;;;10.55;78.47;100185.81;5136039;27;20031;-39
2021/05/16 06:29:13;;;;;;;21.63;5.25;;;;;;;10.56;77.72;100182.84;5134894;27;20494;-39
2021/05/16 06:31:38;;;;;;;18.52;5.28;;;;;;;10.58;76.86;100172.59;5136413;27;20123;-39
2021/05/16 06:34:04;;;;;;;19.10;5.43;;;;;;;10.62;77.55;100185.63;5135669;27;20462;-39
2021/05/16 06:36:30;;;;;;;19.08;5.40;;;;;;;10.67;77.31;100188.41;5135538;27;20041;-39
2021/05/16 06:38:55;;;;;;;23.58;6.13;;;;;;;10.70;77.36;100185.22;5135429;27;20054;-39
2021/05/16 06:41:22;;;;;;;20.73;5.80;;;;;;;10.75;77.69;100194.22;5135463;27;20068;-39
2021/05/16 06:43:47;;;;;;;;;;;;;;;10.88;76.94;100190.31;5136095;27;20043;-39
2021/05/16 06:46:13;;;;;;;21.17;6.15;;;;;;;10.81;77.12;100187.00;5135671;27;20365;-39
2021/05/16 06:48:39;;;;;;;19.42;6.00;;;;;;;10.79;76.69;100191.84;5135300;27;20103;-39
2021/05/16 06:51:04;;;;;;;24.35;6.50;;;;;;;10.90;77.57;100204.44;5135810;27;20020;-39
2021/05/16 06:53:31;;;;;;;25.50;7.10;;;;;;;10.89;76.01;100193.88;5135496;27;20019;-39
2021/05/16 06:55:56;;;;;;;20.77;7.20;;;;;;;10.84;76.08;100205.44;5135951;27;20387;-40
2021/05/16 06:58:22;;;;;;;21.75;9.10;;;;;;;10.86;77.51;100210.59;5135241;27;20031;-39
2021/05/16 07:00:47;;;;;;;23.43;8.90;;;;;;;10.87;75.74;100198.69;5135895;27;20038;-39
2021/05/16 07:03:12;;;;;;;21.07;7.90;;;;;;;10.85;76.25;100201.66;5135231;27;20081;-39
2021/05/16 07:05:37;;;;;;;21.63;7.57;;;;;;;10.85;75.61;100207.06;5135518;27;20019;-39
2021/05/16 07:08:03;;;;;;;24.53;8.43;;;;;;;10.88;76.17;100214.66;5135189;27;20023;-39
2021/05/16 07:10:28;;;;;;;26.30;9.80;;;;;;;10.88;77.35;100209.25;5135467;27;20031;-39
2021/05/16 07:12:54;;;;;;;21.57;9.23;;;;;;;10.88;75.96;100209.25;5135114;27;20447;-39
2021/05/16 07:15:19;;;;;;;26.30;9.20;;;;;;;10.87;75.41;100209.53;5135734;27;20461;-39
2021/05/16 07:17:45;;;;;;;28.00;9.63;;;;;;;10.84;76.11;100205.44;5134955;27;20063;-39
2021/05/16 07:20:11;;;;;;;27.35;10.25;;;;;;;10.83;76.71;100206.47;5135551;27;20359;-39
2021/05/16 07:22:37;;;;;;;;;;;;;;;10.99;76.23;100210.25;5135828;27;20027;-39
2021/05/16 07:25:03;;;;;;;27.45;9.73;;;;;;;10.96;76.17;100214.25;5134851;27;19930;-39
2021/05/16 07:27:29;;;;;;;17.52;7.88;;;;;;;10.92;75.94;100215.81;5134792;27;20026;-40
2021/05/16 07:29:54;;;;;;;26.67;8.70;;;;;;;10.94;76.08;100215.59;5135242;27;20031;-39
2021/05/16 07:32:19;;;;;;;24.80;7.97;;;;;;;10.98;76.31;100214.84;5133895;27;20118;-39
2021/05/16 07:34:45;;;;;;;26.07;8.07;;;;;;;11.02;76.31;100220.56;5134896;27;20386;-39
2021/05/16 07:37:11;;;;;;;24.17;8.25;;;;;;;11.01;76.14;100210.81;5134758;27;20027;-40
2021/05/16 07:39:36;;;;;;;19.60;7.37;;;;;;;11.18;76.26;100214.31;5134114;27;20467;-39
2021/05/16 07:42:02;;;;;;;21.05;7.90;;;;;;;11.19;75.69;100212.41;5134678;27;20427;-40
2021/05/16 07:44:27;;;;;;;20.23;6.70;;;;;;;11.29;76.05;100216.06;5134832;27;20029;-40
2021/05/16 07:46:53;;;;;;;22.50;6.85;;;;;;;11.39;75.84;100212.69;5134528;27;20026;-40
2021/05/16 07:49:18;;;;;;;21.40;6.37;;;;;;;11.43;74.89;100213.00;5135264;27;20058;-39
2021/05/16 07:51:43;;;;;;;20.23;6.07;;;;;;;11.53;75.02;100213.13;5134470;27;20023;-40
2021/05/16 07:54:09;;;;;;;20.87;5.43;;;;;;;11.64;75.31;100198.63;5134740;27;20106;-39
2021/05/16 07:56:34;;;;;;;18.33;5.43;;;;;;;11.74;74.86;100209.56;5134466;27;20064;-39
2021/05/16 07:59:00;;;;;;;15.87;4.70;;;;;;;11.82;72.82;100208.34;5134432;27;20356;-40
2021/05/16 08:01:26;;;;;;;18.20;4.97;;;;;;;11.86;72.22;100209.47;5134100;27;20035;-39
2021/05/16 08:03:52;;;;;;;13.55;4.40;;;;;;;11.92;72.04;100204.91;5134319;27;20079;-40
2021/05/16 08:06:17;;;;;;;13.77;4.47;;;;;;;12.01;72.03;100198.78;5135079;27;20031;-39
2021/05/16 08:08:43;;;;;;;13.25;3.92;;;;;;;12.16;72.91;100200.00;5134309;27;20031;-40
2021/05/16 08:11:09;;;;;;;17.52;4.97;;;;;;;12.31;73.71;100202.84;5134241;27;20091;-39
2021/05/16 08:13:34;;;;;;;15.67;4.97;;;;;;;12.34;70.75;100191.47;5133843;27;20023;-40
2021/05/16 08:15:59;;;;;;;15.60;4.77;;;;;;;12.42;70.07;100196.44;5134725;27;20316;-40
2021/05/16 08:18:25;;;;;;;18.90;4.87;;;;;;;12.51;70.63;100194.06;5134372;27;20348;-40
2021/05/16 08:20:51;;;;;;;18.92;5.05;;;;;;;12.48;67.85;100195.38;5133460;27;20451;-40
2021/05/16 08:23:16;;;;;;;18.47;4.87;;;;;;;12.48;68.43;100194.56;5134386;27;20031;-40
2021/05/16 08:25:41;;;;;;;12.80;3.87;;;;;;;12.53;69.53;100189.19;5134385;27;20027;-40
2021/05/16 08:28:08;;;;;;;12.47;3.77;;;;;;;12.46;67.87;100194.84;5133799;27;20541;-40
2021/05/16 08:30:34;;;;;;;17.88;5.20;;;;;;;12.38;69.62;100189.88;5134090;27;20043;-40
2021/05/16 08:32:59;;;;;;;16.15;4.25;;;;;;;12.40;68.53;100193.19;5134370;27;20130;-40
2021/05/16 08:35:25;;;;;;;16.57;4.20;;;;;;;12.41;68.26;100192.09;5133756;27;20046;-40
2021/05/16 08:37:50;;;;;;;17.03;3.87;;;;;;;12.50;67.92;100190.53;5134239;27;20029;-40
2021/05/16 08:40:17;;;;;;;15.80;4.47;;;;;;;12.59;67.81;100201.69;5134399;27;20292;-40
2021/05/16 08:42:43;;;;;;;19.50;4.18;;;;;;;12.59;66.70;100193.56;5134689;27;20332;-40
2021/05/16 08:45:12;;;;;;;19.02;4.43;;;;;;;12.58;67.34;100191.94;5134237;27;20105;-40
2021/05/16 08:47:38;;;;;;;11.63;4.03;;;;;;;12.77;67.62;100192.34;5133774;27;20023;-40
2021/05/16 08:50:07;;;;;;;16.65;4.47;;;;;;;13.00;68.80;100188.44;5134357;27;20102;-40
2021/05/16 08:52:32;;;;;;;17.67;4.55;;;;;;;13.11;66.02;100201.78;5136012;27;20027;-40
2021/05/16 08:54:57;;;;;;;12.80;3.73;;;;;;;13.29;65.20;100202.47;5138354;27;20034;-40
2021/05/16 08:57:23;;;;;;;16.87;3.80;;;;;;;13.43;65.15;100198.19;5137772;27;20038;-40
2021/05/16 09:00:11;;;;;;;11.80;2.67;;;;;;;13.35;62.71;100195.97;5137961;27;20019;-40
2021/05/16 09:03:16;;;;;;;13.65;3.50;;;;;;;13.18;63.69;100196.13;5137528;27;20050;-40
2021/05/16 09:05:46;;;;;;;15.75;3.25;;;;;;;13.18;64.16;100196.13;5094412;28;20047;-40
2021/05/16 09:08:20;;;;;;;13.95;3.55;;;;;;;13.29;63.90;100188.88;5094125;28;20115;-40
2021/05/16 09:10:50;;;;;;;14.40;4.25;;;;;;;13.52;62.17;100190.34;5094918;28;20395;-40
2021/05/16 09:13:21;;;;;;;9.70;3.10;;;;;;;13.84;62.97;100190.16;5094034;28;20042;-39
2021/05/16 09:16:07;;;;;;;13.57;3.63;;;;;;;14.06;62.17;100176.34;5094678;28;20036;-40
2021/05/16 09:18:45;;;;;;;12.50;3.17;;;;;;;14.47;62.06;100184.50;5093958;28;20119;-40
2021/05/16 09:21:27;;;;;;;12.75;3.72;;;;;;;14.56;61.02;100181.00;5094175;28;20030;-41
2021/05/16 09:24:02;;;;;;;15.20;4.38;;;;;;;14.62;60.90;100169.00;5094110;28;20036;-40
2021/05/16 09:26:28;;;;;;;15.38;3.53;;;;;;;14.72;59.76;100170.09;5093832;28;20035;-40
2021/05/16 09:28:54;;;;;;;18.15;4.30;;;;;;;15.02;60.37;100185.53;5094315;28;20522;-40
2021/05/16 09:31:35;;;;;;;17.13;4.45;;;;;;;15.34;59.21;100168.81;5093797;28;20123;-40
2021/05/16 09:34:06;;;;;;;13.95;4.18;;;;;;;15.54;57.64;100176.91;5094463;28;20031;-40
2021/05/16 09:36:40;;;;;;;13.82;3.63;;;;;;;15.67;58.69;100162.69;5094304;28;20040;-40
2021/05/16 09:39:14;;;;;;;13.43;3.78;;;;;;;15.64;57.39;100157.78;5093489;28;20122;-40
2021/05/16 09:41:54;;;;;;;15.35;3.72;;;;;;;15.66;56.64;100168.41;5101272;27;20035;-40
2021/05/16 09:44:31;;;;;;;11.95;3.58;;;;;;;15.77;59.39;100169.19;5137069;27;20027;-40
2021/05/16 09:47:10;;;;;;;12.32;3.42;;;;;;;15.78;54.72;100157.19;5136824;27;20023;-40
2021/05/16 09:49:35;;;;;;;11.23;3.25;;;;;;;15.69;55.52;100162.41;5136721;27;20039;-40
2021/05/16 09:52:12;;;;;;;13.03;3.70;;;;;;;15.43;56.11;100156.25;5136743;27;20088;-40
2021/05/16 09:55:03;;;;;;;10.88;2.90;;;;;;;15.52;56.00;100156.47;5136280;27;20740;-40
2021/05/16 09:57:36;;;;;;;11.05;3.30;;;;;;;15.80;55.22;100152.25;5136442;27;20463;-40
2021/05/16 10:00:04;;;;;;;10.10;3.58;;;;;;;16.13;55.15;100143.28;5136679;27;20110;-40
2021/05/16 10:02:29;;;;;;;9.15;2.88;;;;;;;16.50;56.60;100144.63;5136192;27;20033;-40
2021/05/16 10:04:57;;;;;;;14.52;3.67;;;;;;;16.55;55.42;100141.84;5136932;27;20496;-40
2021/05/16 10:07:24;;;;;;;11.02;3.55;;;;;;;16.52;53.00;100142.41;5136272;27;20027;-40
2021/05/16 10:09:53;;;;;;;11.25;2.65;;;;;;;16.58;53.79;100135.78;5136648;27;20027;-40
2021/05/16 10:12:20;;;;;;;11.23;2.72;;;;;;;16.66;51.87;100131.63;5136165;27;20110;-40
2021/05/16 10:14:50;;;;;;;8.75;2.92;;;;;;;16.68;52.68;100123.97;5136905;27;20031;-40
2021/05/16 10:17:16;;;;;;;10.80;2.97;;;;;;;16.67;54.75;100128.63;5134728;27;20088;-40
2021/05/16 10:19:43;;;;;;;10.77;2.83;;;;;;;16.50;52.68;100130.97;5136254;27;20030;-40
2021/05/16 10:22:14;;;;;;;9.10;2.72;;;;;;;16.27;53.31;100123.56;5135795;27;20383;-40
2021/05/16 10:24:42;;;;;;;10.60;2.67;;;;;;;16.05;53.86;100130.25;5136526;27;20042;-40
2021/05/16 10:27:28;;;;;;;11.90;2.53;;;;;;;15.92;54.13;100120.00;5136003;27;20027;-40
2021/05/16 10:30:01;;;;;;;9.85;2.45;;;;;;;15.93;53.51;100119.72;5136434;27;20019;-41
2021/05/16 10:32:38;;;;;;;8.35;2.20;;;;;;;16.31;52.46;100119.97;5136364;27;20102;-40
2021/05/16 10:35:05;;;;;;;8.93;2.45;;;;;;;16.67;52.24;100101.31;5136366;27;20016;-40
2021/05/16 10:37:51;;;;;;;8.55;1.98;;;;;;;16.71;51.72;100105.13;5135459;27;20023;-40
2021/05/16 10:40:19;;;;;;;6.07;2.05;;;;;;;16.34;49.76;100110.38;5135861;27;20119;-40
2021/05/16 10:42:44;;;;;;;9.38;2.20;;;;;;;16.20;50.46;100108.34;5135283;27;20505;-40
2021/05/16 10:45:10;;;;;;;8.00;2.30;;;;;;;16.13;51.27;100104.31;5135801;27;20019;-40
2021/05/16 10:47:41;;;;;;;;;;;;;;;16.19;52.72;100105.88;5136494;27;20091;-40
2021/05/16 10:50:07;;;;;;;8.05;2.28;;;;;;;15.80;53.48;100104.00;5136235;27;19946;-40
2021/05/16 10:52:33;;;;;;;7.53;2.22;;;;;;;15.57;56.09;100105.50;5135472;27;20066;-40
2021/05/16 10:54:59;;;;;;;6.00;1.73;;;;;;;15.44;55.85;100106.13;5135515;27;20443;-40
2021/05/16 10:57:36;;;;;;;6.28;2.30;;;;;;;15.36;56.52;100104.78;5135152;27;20383;-40
2021/05/16 11:00:19;;;;;;;7.60;1.90;;;;;;;15.37;56.57;100100.16;5135553;27;20031;-40
2021/05/16 11:03:11;;;;;;;7.85;1.90;;;;;;;15.30;57.99;100089.56;5135746;27;20022;-40
2021/05/16 11:05:50;;;;;;;6.35;2.10;;;;;;;15.28;57.58;100096.41;5136032;27;20023;-40
2021/05/16 11:08:15;;;;;;;5.80;2.13;;;;;;;15.37;58.44;100094.69;5135408;27;20039;-40
2021/05/16 11:10:41;;;;;;;8.17;2.60;;;;;;;15.62;56.19;100094.56;5135240;27;20114;-40
2021/05/16 11:13:07;;;;;;;5.10;1.50;;;;;;;16.15;55.73;100094.75;5134850;27;20390;-40
2021/05/16 11:15:32;;;;;;;9.65;2.10;;;;;;;16.43;53.05;100084.91;5135065;27;20500;-40
2021/05/16 11:17:57;;;;;;;9.38;2.15;;;;;;;16.62;54.59;100090.44;5134780;27;20474;-40
2021/05/16 11:20:23;;;;;;;6.10;1.60;;;;;;;16.71;51.39;100082.44;5134938;27;20531;-40
2021/05/16 11:22:48;;;;;;;7.00;2.13;;;;;;;16.70;50.92;100084.38;5134629;27;20035;-40